sensor_id;sensor_type;location;lat;lon;timestamp;P1;durP1;ratioP1;P2;durP2;ratioP2
1294;SDS011;640;48.310;11.728;2023-04-30T00:01:11;6.32;;;3.60;;
1294;SDS011;640;48.310;11.728;2023-04-30T00:03:40;16.90;;;8.23;;
1294;SDS011;640;48.310;11.728;2023-04-30T00:06:08;19.67;;;15.25;;
1294;SDS011;640;48.310;11.728;2023-04-30T00:08:36;5.32;;;3.38;;
1294;SDS011;640;48.310;11.728;2023-04-30T00:11:06;21.70;;;10.75;;
1294;SDS011;640;48.310;11.728;2023-04-30T00:13:34;37.83;;;23.97;;
1294;SDS011;640;48.310;11.728;2023-04-30T00:16:03;63.30;;;48.35;;
1294;SDS011;640;48.310;11.728;2023-04-30T00:18:31;64.95;;;42.38;;
1294;SDS011;640;48.310;11.728;2023-04-30T00:21:00;66.45;;;42.78;;
1294;SDS011;640;48.310;11.728;2023-04-30T00:23:28;83.90;;;53.05;;
1294;SDS011;640;48.310;11.728;2023-04-30T00:25:56;63.70;;;43.50;;
1294;SDS011;640;48.310;11.728;2023-04-30T00:28:26;88.22;;;53.55;;
1294;SDS011;640;48.310;11.728;2023-04-30T00:30:54;101.00;;;59.97;;
1294;SDS011;640;48.310;11.728;2023-04-30T00:33:23;111.95;;;67.30;;
1294;SDS011;640;48.310;11.728;2023-04-30T00:35:51;103.57;;;65.00;;
1294;SDS011;640;48.310;11.728;2023-04-30T00:38:19;109.00;;;62.83;;
1294;SDS011;640;48.310;11.728;2023-04-30T00:40:47;100.00;;;63.05;;
1294;SDS011;640;48.310;11.728;2023-04-30T00:43:16;104.78;;;66.55;;
1294;SDS011;640;48.310;11.728;2023-04-30T00:45:45;82.15;;;48.53;;
1294;SDS011;640;48.310;11.728;2023-04-30T00:48:14;128.13;;;68.70;;
1294;SDS011;640;48.310;11.728;2023-04-30T00:50:42;121.03;;;67.55;;
1294;SDS011;640;48.310;11.728;2023-04-30T00:53:11;107.45;;;56.88;;
1294;SDS011;640;48.310;11.728;2023-04-30T00:55:40;69.68;;;47.28;;
1294;SDS011;640;48.310;11.728;2023-04-30T00:58:11;158.30;;;85.80;;
1294;SDS011;640;48.310;11.728;2023-04-30T01:00:48;143.57;;;76.18;;
1294;SDS011;640;48.310;11.728;2023-04-30T01:03:20;163.18;;;87.50;;
1294;SDS011;640;48.310;11.728;2023-04-30T01:05:51;154.30;;;82.28;;
1294;SDS011;640;48.310;11.728;2023-04-30T01:11:29;167.02;;;93.45;;
1294;SDS011;640;48.310;11.728;2023-04-30T01:14:11;141.55;;;78.88;;
1294;SDS011;640;48.310;11.728;2023-04-30T01:16:57;137.57;;;81.78;;
1294;SDS011;640;48.310;11.728;2023-04-30T01:19:37;83.07;;;50.35;;
1294;SDS011;640;48.310;11.728;2023-04-30T01:22:11;93.95;;;57.25;;
1294;SDS011;640;48.310;11.728;2023-04-30T01:25:00;131.65;;;77.50;;
1294;SDS011;640;48.310;11.728;2023-04-30T01:27:50;132.35;;;75.57;;
1294;SDS011;640;48.310;11.728;2023-04-30T01:30:29;148.15;;;80.32;;
1294;SDS011;640;48.310;11.728;2023-04-30T01:32:58;133.05;;;75.03;;
1294;SDS011;640;48.310;11.728;2023-04-30T01:35:33;146.10;;;87.75;;
1294;SDS011;640;48.310;11.728;2023-04-30T01:38:26;120.28;;;66.75;;
1294;SDS011;640;48.310;11.728;2023-04-30T01:41:04;131.85;;;74.60;;
1294;SDS011;640;48.310;11.728;2023-04-30T01:43:41;122.95;;;67.30;;
1294;SDS011;640;48.310;11.728;2023-04-30T01:46:17;139.75;;;97.03;;
1294;SDS011;640;48.310;11.728;2023-04-30T01:48:49;138.95;;;74.63;;
1294;SDS011;640;48.310;11.728;2023-04-30T01:51:23;161.38;;;85.15;;
1294;SDS011;640;48.310;11.728;2023-04-30T01:53:58;160.73;;;84.55;;
1294;SDS011;640;48.310;11.728;2023-04-30T01:56:30;169.55;;;91.53;;
1294;SDS011;640;48.310;11.728;2023-04-30T01:59:01;172.20;;;95.63;;
1294;SDS011;640;48.310;11.728;2023-04-30T02:01:30;168.48;;;91.65;;
1294;SDS011;640;48.310;11.728;2023-04-30T02:03:59;160.30;;;89.27;;
1294;SDS011;640;48.310;11.728;2023-04-30T02:06:28;162.10;;;86.95;;
1294;SDS011;640;48.310;11.728;2023-04-30T02:08:57;156.30;;;85.78;;
1294;SDS011;640;48.310;11.728;2023-04-30T02:11:29;165.05;;;84.60;;
1294;SDS011;640;48.310;11.728;2023-04-30T02:13:57;165.05;;;88.15;;
1294;SDS011;640;48.310;11.728;2023-04-30T02:16:27;92.38;;;50.65;;
1294;SDS011;640;48.310;11.728;2023-04-30T02:18:55;170.40;;;85.47;;
1294;SDS011;640;48.310;11.728;2023-04-30T02:21:23;162.13;;;87.45;;
1294;SDS011;640;48.310;11.728;2023-04-30T02:23:53;153.93;;;79.80;;
1294;SDS011;640;48.310;11.728;2023-04-30T02:26:21;147.48;;;75.35;;
1294;SDS011;640;48.310;11.728;2023-04-30T02:28:49;152.93;;;79.93;;
1294;SDS011;640;48.310;11.728;2023-04-30T02:31:18;148.70;;;77.80;;
1294;SDS011;640;48.310;11.728;2023-04-30T02:33:47;136.82;;;76.25;;
1294;SDS011;640;48.310;11.728;2023-04-30T02:36:16;129.10;;;72.97;;
1294;SDS011;640;48.310;11.728;2023-04-30T02:38:44;118.93;;;64.03;;
1294;SDS011;640;48.310;11.728;2023-04-30T02:41:12;109.28;;;63.45;;
1294;SDS011;640;48.310;11.728;2023-04-30T02:43:40;114.10;;;64.68;;
1294;SDS011;640;48.310;11.728;2023-04-30T02:46:09;122.88;;;69.80;;
1294;SDS011;640;48.310;11.728;2023-04-30T02:48:37;126.90;;;71.82;;
1294;SDS011;640;48.310;11.728;2023-04-30T02:51:07;122.20;;;72.78;;
1294;SDS011;640;48.310;11.728;2023-04-30T02:53:35;116.32;;;64.75;;
1294;SDS011;640;48.310;11.728;2023-04-30T02:56:04;120.78;;;69.13;;
1294;SDS011;640;48.310;11.728;2023-04-30T02:58:33;133.45;;;77.43;;
1294;SDS011;640;48.310;11.728;2023-04-30T03:01:01;149.15;;;88.00;;
1294;SDS011;640;48.310;11.728;2023-04-30T03:03:30;146.52;;;85.10;;
1294;SDS011;640;48.310;11.728;2023-04-30T03:05:58;147.55;;;79.65;;
1294;SDS011;640;48.310;11.728;2023-04-30T03:08:28;155.70;;;86.55;;
1294;SDS011;640;48.310;11.728;2023-04-30T03:10:56;163.50;;;95.32;;
1294;SDS011;640;48.310;11.728;2023-04-30T03:13:24;150.25;;;84.22;;
1294;SDS011;640;48.310;11.728;2023-04-30T03:15:55;153.93;;;82.95;;
1294;SDS011;640;48.310;11.728;2023-04-30T03:18:25;161.30;;;89.20;;
1294;SDS011;640;48.310;11.728;2023-04-30T03:20:53;163.13;;;90.07;;
1294;SDS011;640;48.310;11.728;2023-04-30T03:23:22;141.77;;;74.28;;
1294;SDS011;640;48.310;11.728;2023-04-30T03:25:52;199.35;;;108.47;;
1294;SDS011;640;48.310;11.728;2023-04-30T03:28:20;138.68;;;73.90;;
1294;SDS011;640;48.310;11.728;2023-04-30T03:30:49;169.13;;;97.03;;
1294;SDS011;640;48.310;11.728;2023-04-30T03:33:17;97.72;;;48.42;;
1294;SDS011;640;48.310;11.728;2023-04-30T03:35:46;10.63;;;5.70;;
1294;SDS011;640;48.310;11.728;2023-04-30T03:38:15;8.98;;;6.05;;
1294;SDS011;640;48.310;11.728;2023-04-30T03:40:43;9.20;;;6.45;;
1294;SDS011;640;48.310;11.728;2023-04-30T03:43:13;9.80;;;6.15;;
1294;SDS011;640;48.310;11.728;2023-04-30T03:45:41;11.43;;;6.95;;
1294;SDS011;640;48.310;11.728;2023-04-30T03:48:10;10.10;;;6.65;;
1294;SDS011;640;48.310;11.728;2023-04-30T03:50:38;10.68;;;6.43;;
1294;SDS011;640;48.310;11.728;2023-04-30T03:53:06;11.25;;;6.90;;
1294;SDS011;640;48.310;11.728;2023-04-30T03:55:35;11.05;;;7.20;;
1294;SDS011;640;48.310;11.728;2023-04-30T03:58:03;11.68;;;7.22;;
1294;SDS011;640;48.310;11.728;2023-04-30T04:00:33;10.82;;;7.32;;
1294;SDS011;640;48.310;11.728;2023-04-30T04:03:01;12.40;;;7.35;;
1294;SDS011;640;48.310;11.728;2023-04-30T04:05:30;10.63;;;6.80;;
1294;SDS011;640;48.310;11.728;2023-04-30T04:07:58;11.52;;;7.20;;
1294;SDS011;640;48.310;11.728;2023-04-30T04:10:27;9.90;;;7.18;;
1294;SDS011;640;48.310;11.728;2023-04-30T04:12:55;11.07;;;7.00;;
1294;SDS011;640;48.310;11.728;2023-04-30T04:15:24;10.85;;;7.28;;
1294;SDS011;640;48.310;11.728;2023-04-30T04:17:53;12.80;;;7.90;;
1294;SDS011;640;48.310;11.728;2023-04-30T04:20:22;9.87;;;6.83;;
1294;SDS011;640;48.310;11.728;2023-04-30T04:22:50;9.40;;;6.85;;
1294;SDS011;640;48.310;11.728;2023-04-30T04:25:18;9.80;;;6.68;;
1294;SDS011;640;48.310;11.728;2023-04-30T04:27:50;10.70;;;7.28;;
1294;SDS011;640;48.310;11.728;2023-04-30T04:30:19;10.93;;;7.18;;
1294;SDS011;640;48.310;11.728;2023-04-30T04:32:47;11.75;;;7.63;;
1294;SDS011;640;48.310;11.728;2023-04-30T04:35:21;10.05;;;7.07;;
1294;SDS011;640;48.310;11.728;2023-04-30T04:37:49;9.53;;;6.17;;
1294;SDS011;640;48.310;11.728;2023-04-30T04:40:17;10.88;;;7.53;;
1294;SDS011;640;48.310;11.728;2023-04-30T04:42:48;9.57;;;7.10;;
1294;SDS011;640;48.310;11.728;2023-04-30T04:45:17;8.85;;;6.93;;
1294;SDS011;640;48.310;11.728;2023-04-30T04:47:46;9.77;;;7.22;;
1294;SDS011;640;48.310;11.728;2023-04-30T04:50:15;9.85;;;7.45;;
1294;SDS011;640;48.310;11.728;2023-04-30T04:52:45;10.13;;;7.45;;
1294;SDS011;640;48.310;11.728;2023-04-30T04:55:13;10.40;;;7.70;;
1294;SDS011;640;48.310;11.728;2023-04-30T04:57:42;9.80;;;6.57;;
1294;SDS011;640;48.310;11.728;2023-04-30T05:00:10;11.50;;;7.82;;
1294;SDS011;640;48.310;11.728;2023-04-30T05:02:39;9.85;;;7.75;;
1294;SDS011;640;48.310;11.728;2023-04-30T05:05:08;12.40;;;7.22;;
1294;SDS011;640;48.310;11.728;2023-04-30T05:07:37;9.60;;;7.15;;
1294;SDS011;640;48.310;11.728;2023-04-30T05:10:07;9.70;;;7.38;;
1294;SDS011;640;48.310;11.728;2023-04-30T05:12:36;11.43;;;7.38;;
1294;SDS011;640;48.310;11.728;2023-04-30T05:15:04;8.27;;;6.43;;
1294;SDS011;640;48.310;11.728;2023-04-30T05:17:33;9.93;;;7.30;;
1294;SDS011;640;48.310;11.728;2023-04-30T05:20:02;11.85;;;7.55;;
1294;SDS011;640;48.310;11.728;2023-04-30T05:22:32;10.05;;;7.70;;
1294;SDS011;640;48.310;11.728;2023-04-30T05:25:01;10.43;;;7.60;;
1294;SDS011;640;48.310;11.728;2023-04-30T05:27:31;10.98;;;7.25;;
1294;SDS011;640;48.310;11.728;2023-04-30T05:29:59;10.75;;;8.43;;
1294;SDS011;640;48.310;11.728;2023-04-30T05:32:28;12.07;;;8.45;;
1294;SDS011;640;48.310;11.728;2023-04-30T05:34:56;11.23;;;8.05;;
1294;SDS011;640;48.310;11.728;2023-04-30T05:37:24;10.85;;;6.97;;
1294;SDS011;640;48.310;11.728;2023-04-30T05:39:53;9.77;;;7.82;;
1294;SDS011;640;48.310;11.728;2023-04-30T05:42:21;9.98;;;6.85;;
1294;SDS011;640;48.310;11.728;2023-04-30T05:44:51;8.88;;;7.57;;
1294;SDS011;640;48.310;11.728;2023-04-30T05:47:21;10.25;;;8.15;;
1294;SDS011;640;48.310;11.728;2023-04-30T05:49:49;10.80;;;8.68;;
1294;SDS011;640;48.310;11.728;2023-04-30T05:52:18;9.85;;;7.55;;
1294;SDS011;640;48.310;11.728;2023-04-30T05:54:46;8.93;;;7.13;;
1294;SDS011;640;48.310;11.728;2023-04-30T05:57:15;10.38;;;7.43;;
1294;SDS011;640;48.310;11.728;2023-04-30T05:59:44;12.15;;;8.27;;
1294;SDS011;640;48.310;11.728;2023-04-30T06:02:13;9.15;;;7.75;;
1294;SDS011;640;48.310;11.728;2023-04-30T06:04:42;11.90;;;7.47;;
1294;SDS011;640;48.310;11.728;2023-04-30T06:07:10;9.35;;;6.53;;
1294;SDS011;640;48.310;11.728;2023-04-30T06:09:39;9.63;;;7.53;;
1294;SDS011;640;48.310;11.728;2023-04-30T06:12:07;8.93;;;7.03;;
1294;SDS011;640;48.310;11.728;2023-04-30T06:14:35;11.57;;;8.68;;
1294;SDS011;640;48.310;11.728;2023-04-30T06:17:03;10.75;;;7.90;;
1294;SDS011;640;48.310;11.728;2023-04-30T06:19:33;9.05;;;7.05;;
1294;SDS011;640;48.310;11.728;2023-04-30T06:22:01;8.63;;;6.87;;
1294;SDS011;640;48.310;11.728;2023-04-30T06:24:30;11.95;;;8.20;;
1294;SDS011;640;48.310;11.728;2023-04-30T06:26:58;10.38;;;6.97;;
1294;SDS011;640;48.310;11.728;2023-04-30T06:29:26;8.57;;;6.47;;
1294;SDS011;640;48.310;11.728;2023-04-30T06:31:55;9.77;;;7.35;;
1294;SDS011;640;48.310;11.728;2023-04-30T06:34:23;8.23;;;6.80;;
1294;SDS011;640;48.310;11.728;2023-04-30T06:36:53;9.93;;;7.47;;
1294;SDS011;640;48.310;11.728;2023-04-30T06:39:22;9.50;;;6.85;;
1294;SDS011;640;48.310;11.728;2023-04-30T06:41:50;8.73;;;7.50;;
1294;SDS011;640;48.310;11.728;2023-04-30T06:44:19;9.93;;;7.50;;
1294;SDS011;640;48.310;11.728;2023-04-30T06:46:47;9.43;;;7.28;;
1294;SDS011;640;48.310;11.728;2023-04-30T06:49:15;10.15;;;7.80;;
1294;SDS011;640;48.310;11.728;2023-04-30T06:51:44;7.93;;;6.43;;
1294;SDS011;640;48.310;11.728;2023-04-30T06:54:13;9.57;;;6.22;;
1294;SDS011;640;48.310;11.728;2023-04-30T06:56:42;9.25;;;6.55;;
1294;SDS011;640;48.310;11.728;2023-04-30T06:59:10;9.18;;;6.45;;
1294;SDS011;640;48.310;11.728;2023-04-30T07:01:39;9.70;;;6.82;;
1294;SDS011;640;48.310;11.728;2023-04-30T07:04:07;7.22;;;5.68;;
1294;SDS011;640;48.310;11.728;2023-04-30T07:06:35;8.80;;;7.40;;
1294;SDS011;640;48.310;11.728;2023-04-30T07:09:04;10.02;;;8.05;;
1294;SDS011;640;48.310;11.728;2023-04-30T07:11:34;8.50;;;6.68;;
1294;SDS011;640;48.310;11.728;2023-04-30T07:14:02;8.47;;;7.33;;
1294;SDS011;640;48.310;11.728;2023-04-30T07:16:30;7.72;;;6.30;;
1294;SDS011;640;48.310;11.728;2023-04-30T07:18:59;6.85;;;5.25;;
1294;SDS011;640;48.310;11.728;2023-04-30T07:21:28;7.43;;;5.30;;
1294;SDS011;640;48.310;11.728;2023-04-30T07:23:58;6.50;;;4.40;;
1294;SDS011;640;48.310;11.728;2023-04-30T07:26:26;6.13;;;5.53;;
1294;SDS011;640;48.310;11.728;2023-04-30T07:28:56;5.35;;;3.63;;
1294;SDS011;640;48.310;11.728;2023-04-30T07:31:25;6.87;;;5.67;;
1294;SDS011;640;48.310;11.728;2023-04-30T07:33:53;6.22;;;4.65;;
1294;SDS011;640;48.310;11.728;2023-04-30T07:36:21;6.68;;;4.40;;
1294;SDS011;640;48.310;11.728;2023-04-30T07:38:50;7.22;;;5.70;;
1294;SDS011;640;48.310;11.728;2023-04-30T07:41:18;7.70;;;5.32;;
1294;SDS011;640;48.310;11.728;2023-04-30T07:43:47;9.30;;;6.28;;
1294;SDS011;640;48.310;11.728;2023-04-30T07:46:17;22.20;;;9.27;;
1294;SDS011;640;48.310;11.728;2023-04-30T07:48:45;11.17;;;6.73;;
1294;SDS011;640;48.310;11.728;2023-04-30T07:51:13;16.83;;;8.85;;
1294;SDS011;640;48.310;11.728;2023-04-30T07:53:42;19.58;;;15.38;;
1294;SDS011;640;48.310;11.728;2023-04-30T07:56:10;22.80;;;17.42;;
1294;SDS011;640;48.310;11.728;2023-04-30T07:58:39;6.88;;;5.32;;
1294;SDS011;640;48.310;11.728;2023-04-30T08:01:07;7.35;;;5.57;;
1294;SDS011;640;48.310;11.728;2023-04-30T08:03:37;6.00;;;4.63;;
1294;SDS011;640;48.310;11.728;2023-04-30T08:06:05;6.35;;;5.05;;
1294;SDS011;640;48.310;11.728;2023-04-30T08:08:34;6.80;;;4.78;;
1294;SDS011;640;48.310;11.728;2023-04-30T08:11:02;6.28;;;5.00;;
1294;SDS011;640;48.310;11.728;2023-04-30T08:13:30;6.63;;;5.30;;
1294;SDS011;640;48.310;11.728;2023-04-30T08:15:59;6.25;;;5.32;;
1294;SDS011;640;48.310;11.728;2023-04-30T08:18:28;8.25;;;4.22;;
1294;SDS011;640;48.310;11.728;2023-04-30T08:20:57;7.10;;;5.45;;
1294;SDS011;640;48.310;11.728;2023-04-30T08:23:26;6.45;;;4.80;;
1294;SDS011;640;48.310;11.728;2023-04-30T08:25:55;6.03;;;5.43;;
1294;SDS011;640;48.310;11.728;2023-04-30T08:28:23;6.93;;;5.53;;
1294;SDS011;640;48.310;11.728;2023-04-30T08:30:51;9.02;;;5.22;;
1294;SDS011;640;48.310;11.728;2023-04-30T08:33:20;8.40;;;6.43;;
1294;SDS011;640;48.310;11.728;2023-04-30T08:35:48;7.65;;;6.10;;
1294;SDS011;640;48.310;11.728;2023-04-30T08:38:18;6.82;;;5.30;;
1294;SDS011;640;48.310;11.728;2023-04-30T08:40:48;6.63;;;5.40;;
1294;SDS011;640;48.310;11.728;2023-04-30T08:43:22;6.40;;;4.50;;
1294;SDS011;640;48.310;11.728;2023-04-30T08:45:50;5.40;;;4.70;;
1294;SDS011;640;48.310;11.728;2023-04-30T08:48:19;6.97;;;5.25;;
1294;SDS011;640;48.310;11.728;2023-04-30T08:50:48;6.53;;;5.30;;
1294;SDS011;640;48.310;11.728;2023-04-30T08:53:17;6.20;;;5.45;;
1294;SDS011;640;48.310;11.728;2023-04-30T08:55:47;7.78;;;5.45;;
1294;SDS011;640;48.310;11.728;2023-04-30T08:58:15;11.57;;;5.45;;
1294;SDS011;640;48.310;11.728;2023-04-30T09:00:44;9.38;;;5.72;;
1294;SDS011;640;48.310;11.728;2023-04-30T09:03:12;9.13;;;6.10;;
1294;SDS011;640;48.310;11.728;2023-04-30T09:05:40;6.28;;;5.53;;
1294;SDS011;640;48.310;11.728;2023-04-30T09:08:09;5.90;;;5.18;;
1294;SDS011;640;48.310;11.728;2023-04-30T09:10:45;5.53;;;4.85;;
1294;SDS011;640;48.310;11.728;2023-04-30T09:13:13;6.77;;;5.53;;
1294;SDS011;640;48.310;11.728;2023-04-30T09:15:41;6.93;;;5.88;;
1294;SDS011;640;48.310;11.728;2023-04-30T09:18:12;6.03;;;4.93;;
1294;SDS011;640;48.310;11.728;2023-04-30T09:20:53;7.38;;;5.72;;
1294;SDS011;640;48.310;11.728;2023-04-30T09:23:22;6.97;;;5.38;;
1294;SDS011;640;48.310;11.728;2023-04-30T09:25:52;5.22;;;4.43;;
1294;SDS011;640;48.310;11.728;2023-04-30T09:28:20;5.93;;;4.00;;
1294;SDS011;640;48.310;11.728;2023-04-30T09:33:20;5.00;;;4.43;;
1294;SDS011;640;48.310;11.728;2023-04-30T09:35:48;7.68;;;4.75;;
1294;SDS011;640;48.310;11.728;2023-04-30T09:38:25;7.20;;;5.13;;
1294;SDS011;640;48.310;11.728;2023-04-30T09:40:58;5.38;;;4.60;;
1294;SDS011;640;48.310;11.728;2023-04-30T09:43:27;6.22;;;4.25;;
1294;SDS011;640;48.310;11.728;2023-04-30T09:45:56;5.47;;;4.65;;
1294;SDS011;640;48.310;11.728;2023-04-30T09:48:26;6.03;;;4.97;;
1294;SDS011;640;48.310;11.728;2023-04-30T09:50:55;4.93;;;4.43;;
1294;SDS011;640;48.310;11.728;2023-04-30T09:53:23;6.07;;;4.90;;
1294;SDS011;640;48.310;11.728;2023-04-30T09:55:51;5.15;;;4.63;;
1294;SDS011;640;48.310;11.728;2023-04-30T09:58:23;5.70;;;5.13;;
1294;SDS011;640;48.310;11.728;2023-04-30T10:00:54;5.85;;;4.85;;
1294;SDS011;640;48.310;11.728;2023-04-30T10:03:25;5.05;;;4.55;;
1294;SDS011;640;48.310;11.728;2023-04-30T10:05:57;5.90;;;4.72;;
1294;SDS011;640;48.310;11.728;2023-04-30T10:08:26;5.85;;;4.40;;
1294;SDS011;640;48.310;11.728;2023-04-30T10:10:56;5.05;;;4.43;;
1294;SDS011;640;48.310;11.728;2023-04-30T10:13:28;5.88;;;4.28;;
1294;SDS011;640;48.310;11.728;2023-04-30T10:15:58;5.25;;;4.22;;
1294;SDS011;640;48.310;11.728;2023-04-30T10:18:32;5.25;;;4.40;;
1294;SDS011;640;48.310;11.728;2023-04-30T10:23:31;4.53;;;3.70;;
1294;SDS011;640;48.310;11.728;2023-04-30T10:26:00;5.07;;;3.75;;
1294;SDS011;640;48.310;11.728;2023-04-30T10:28:30;5.13;;;3.88;;
1294;SDS011;640;48.310;11.728;2023-04-30T10:30:59;4.03;;;3.60;;
1294;SDS011;640;48.310;11.728;2023-04-30T10:33:30;4.70;;;3.60;;
1294;SDS011;640;48.310;11.728;2023-04-30T10:36:02;4.90;;;3.67;;
1294;SDS011;640;48.310;11.728;2023-04-30T10:38:32;4.68;;;3.28;;
1294;SDS011;640;48.310;11.728;2023-04-30T10:41:01;4.32;;;3.30;;
1294;SDS011;640;48.310;11.728;2023-04-30T10:46:02;4.28;;;3.75;;
1294;SDS011;640;48.310;11.728;2023-04-30T10:48:32;4.38;;;3.50;;
1294;SDS011;640;48.310;11.728;2023-04-30T10:51:01;6.93;;;3.28;;
1294;SDS011;640;48.310;11.728;2023-04-30T10:53:30;3.38;;;2.92;;
1294;SDS011;640;48.310;11.728;2023-04-30T10:56:00;4.05;;;3.30;;
1294;SDS011;640;48.310;11.728;2023-04-30T10:58:35;3.90;;;3.00;;
1294;SDS011;640;48.310;11.728;2023-04-30T11:01:08;5.20;;;3.53;;
1294;SDS011;640;48.310;11.728;2023-04-30T11:03:39;3.58;;;2.38;;
1294;SDS011;640;48.310;11.728;2023-04-30T11:06:10;4.00;;;3.50;;
1294;SDS011;640;48.310;11.728;2023-04-30T11:08:43;3.92;;;3.40;;
1294;SDS011;640;48.310;11.728;2023-04-30T11:11:16;8.00;;;3.00;;
1294;SDS011;640;48.310;11.728;2023-04-30T11:13:57;4.38;;;3.25;;
1294;SDS011;640;48.310;11.728;2023-04-30T11:16:27;3.30;;;2.67;;
1294;SDS011;640;48.310;11.728;2023-04-30T11:19:04;3.22;;;2.80;;
1294;SDS011;640;48.310;11.728;2023-04-30T11:21:38;3.08;;;2.70;;
1294;SDS011;640;48.310;11.728;2023-04-30T11:24:07;4.85;;;3.45;;
1294;SDS011;640;48.310;11.728;2023-04-30T11:29:32;3.75;;;3.33;;
1294;SDS011;640;48.310;11.728;2023-04-30T11:32:01;3.45;;;2.95;;
1294;SDS011;640;48.310;11.728;2023-04-30T11:34:31;4.25;;;3.00;;
1294;SDS011;640;48.310;11.728;2023-04-30T11:37:01;14.55;;;3.67;;
1294;SDS011;640;48.310;11.728;2023-04-30T11:39:30;3.67;;;2.63;;
1294;SDS011;640;48.310;11.728;2023-04-30T11:42:00;3.28;;;2.70;;
1294;SDS011;640;48.310;11.728;2023-04-30T11:44:29;3.97;;;2.53;;
1294;SDS011;640;48.310;11.728;2023-04-30T11:46:59;3.13;;;2.50;;
1294;SDS011;640;48.310;11.728;2023-04-30T11:49:27;4.07;;;2.72;;
1294;SDS011;640;48.310;11.728;2023-04-30T11:51:57;3.60;;;2.90;;
1294;SDS011;640;48.310;11.728;2023-04-30T11:54:25;3.60;;;2.95;;
1294;SDS011;640;48.310;11.728;2023-04-30T11:56:53;4.10;;;3.15;;
1294;SDS011;640;48.310;11.728;2023-04-30T11:59:28;3.35;;;2.50;;
1294;SDS011;640;48.310;11.728;2023-04-30T12:01:56;3.03;;;2.30;;
1294;SDS011;640;48.310;11.728;2023-04-30T12:04:26;2.70;;;2.30;;
1294;SDS011;640;48.310;11.728;2023-04-30T12:06:55;3.42;;;2.28;;
1294;SDS011;640;48.310;11.728;2023-04-30T12:09:24;2.58;;;2.20;;
1294;SDS011;640;48.310;11.728;2023-04-30T12:11:52;4.90;;;2.17;;
1294;SDS011;640;48.310;11.728;2023-04-30T12:14:23;3.30;;;2.28;;
1294;SDS011;640;48.310;11.728;2023-04-30T12:16:51;3.45;;;2.97;;
1294;SDS011;640;48.310;11.728;2023-04-30T12:19:21;3.17;;;2.50;;
1294;SDS011;640;48.310;11.728;2023-04-30T12:21:51;4.00;;;2.35;;
1294;SDS011;640;48.310;11.728;2023-04-30T12:24:21;2.50;;;1.90;;
1294;SDS011;640;48.310;11.728;2023-04-30T12:26:51;5.43;;;2.40;;
1294;SDS011;640;48.310;11.728;2023-04-30T12:29:29;3.58;;;2.30;;
1294;SDS011;640;48.310;11.728;2023-04-30T12:31:57;3.30;;;2.15;;
1294;SDS011;640;48.310;11.728;2023-04-30T12:34:26;3.50;;;2.20;;
1294;SDS011;640;48.310;11.728;2023-04-30T12:36:58;5.03;;;1.60;;
1294;SDS011;640;48.310;11.728;2023-04-30T12:39:31;2.83;;;2.20;;
1294;SDS011;640;48.310;11.728;2023-04-30T12:42:00;2.47;;;1.98;;
1294;SDS011;640;48.310;11.728;2023-04-30T12:44:40;3.30;;;2.10;;
1294;SDS011;640;48.310;11.728;2023-04-30T12:47:09;2.47;;;1.85;;
1294;SDS011;640;48.310;11.728;2023-04-30T12:49:37;2.63;;;1.80;;
1294;SDS011;640;48.310;11.728;2023-04-30T12:52:07;3.40;;;2.28;;
1294;SDS011;640;48.310;11.728;2023-04-30T12:57:06;2.50;;;1.88;;
1294;SDS011;640;48.310;11.728;2023-04-30T12:59:37;4.18;;;2.00;;
1294;SDS011;640;48.310;11.728;2023-04-30T13:02:07;3.78;;;2.80;;
1294;SDS011;640;48.310;11.728;2023-04-30T13:04:36;4.38;;;2.95;;
1294;SDS011;640;48.310;11.728;2023-04-30T13:07:04;2.65;;;2.10;;
1294;SDS011;640;48.310;11.728;2023-04-30T13:09:33;4.20;;;2.30;;
1294;SDS011;640;48.310;11.728;2023-04-30T13:12:02;3.70;;;2.40;;
1294;SDS011;640;48.310;11.728;2023-04-30T13:14:32;3.90;;;3.17;;
1294;SDS011;640;48.310;11.728;2023-04-30T13:17:02;3.80;;;2.63;;
1294;SDS011;640;48.310;11.728;2023-04-30T13:19:33;3.53;;;2.65;;
1294;SDS011;640;48.310;11.728;2023-04-30T13:22:01;3.45;;;2.50;;
1294;SDS011;640;48.310;11.728;2023-04-30T13:24:29;4.40;;;2.80;;
1294;SDS011;640;48.310;11.728;2023-04-30T13:26:58;4.82;;;2.70;;
1294;SDS011;640;48.310;11.728;2023-04-30T13:29:26;2.35;;;2.10;;
1294;SDS011;640;48.310;11.728;2023-04-30T13:31:54;3.20;;;2.30;;
1294;SDS011;640;48.310;11.728;2023-04-30T13:34:24;3.88;;;2.47;;
1294;SDS011;640;48.310;11.728;2023-04-30T13:36:52;3.15;;;2.30;;
1294;SDS011;640;48.310;11.728;2023-04-30T13:39:21;104.10;;;56.38;;
1294;SDS011;640;48.310;11.728;2023-04-30T13:41:49;7.22;;;2.67;;
1294;SDS011;640;48.310;11.728;2023-04-30T13:44:17;5.20;;;2.65;;
1294;SDS011;640;48.310;11.728;2023-04-30T13:46:45;5.57;;;2.70;;
1294;SDS011;640;48.310;11.728;2023-04-30T13:49:14;63.70;;;51.15;;
1294;SDS011;640;48.310;11.728;2023-04-30T13:51:43;3.38;;;2.55;;
1294;SDS011;640;48.310;11.728;2023-04-30T13:54:12;2.90;;;2.00;;
1294;SDS011;640;48.310;11.728;2023-04-30T13:56:40;31.60;;;25.45;;
1294;SDS011;640;48.310;11.728;2023-04-30T13:59:09;3.22;;;2.15;;
1294;SDS011;640;48.310;11.728;2023-04-30T14:01:38;6.60;;;5.45;;
1294;SDS011;640;48.310;11.728;2023-04-30T14:04:06;3.22;;;2.30;;
1294;SDS011;640;48.310;11.728;2023-04-30T14:06:35;3.58;;;2.50;;
1294;SDS011;640;48.310;11.728;2023-04-30T14:09:05;2.40;;;1.67;;
1294;SDS011;640;48.310;11.728;2023-04-30T14:11:34;13.48;;;8.05;;
1294;SDS011;640;48.310;11.728;2023-04-30T14:14:02;2.95;;;2.30;;
1294;SDS011;640;48.310;11.728;2023-04-30T14:16:31;2.75;;;2.28;;
1294;SDS011;640;48.310;11.728;2023-04-30T14:19:00;3.22;;;1.92;;
1294;SDS011;640;48.310;11.728;2023-04-30T14:21:28;6.35;;;2.15;;
1294;SDS011;640;48.310;11.728;2023-04-30T14:23:57;3.55;;;2.20;;
1294;SDS011;640;48.310;11.728;2023-04-30T14:26:26;112.10;;;64.50;;
1294;SDS011;640;48.310;11.728;2023-04-30T14:28:55;3.63;;;1.65;;
1294;SDS011;640;48.310;11.728;2023-04-30T14:31:24;15.98;;;11.25;;
1294;SDS011;640;48.310;11.728;2023-04-30T14:33:52;100.50;;;63.30;;
1294;SDS011;640;48.310;11.728;2023-04-30T14:36:21;5.03;;;2.97;;
1294;SDS011;640;48.310;11.728;2023-04-30T14:38:49;66.20;;;42.08;;
1294;SDS011;640;48.310;11.728;2023-04-30T14:41:17;10.25;;;7.65;;
1294;SDS011;640;48.310;11.728;2023-04-30T14:43:47;109.72;;;75.40;;
1294;SDS011;640;48.310;11.728;2023-04-30T14:46:15;3.30;;;2.17;;
1294;SDS011;640;48.310;11.728;2023-04-30T14:48:44;3.20;;;2.20;;
1294;SDS011;640;48.310;11.728;2023-04-30T14:51:12;62.33;;;39.25;;
1294;SDS011;640;48.310;11.728;2023-04-30T14:53:40;3.55;;;1.90;;
1294;SDS011;640;48.310;11.728;2023-04-30T14:56:08;26.20;;;20.85;;
1294;SDS011;640;48.310;11.728;2023-04-30T14:58:37;114.53;;;75.38;;
1294;SDS011;640;48.310;11.728;2023-04-30T15:01:07;68.80;;;45.67;;
1294;SDS011;640;48.310;11.728;2023-04-30T15:03:35;26.38;;;19.67;;
1294;SDS011;640;48.310;11.728;2023-04-30T15:06:04;70.68;;;52.28;;
1294;SDS011;640;48.310;11.728;2023-04-30T15:08:32;42.47;;;30.25;;
1294;SDS011;640;48.310;11.728;2023-04-30T15:11:01;47.83;;;33.78;;
1294;SDS011;640;48.310;11.728;2023-04-30T15:13:30;7.10;;;3.90;;
1294;SDS011;640;48.310;11.728;2023-04-30T15:15:59;4.22;;;2.30;;
1294;SDS011;640;48.310;11.728;2023-04-30T15:18:28;2.38;;;1.92;;
1294;SDS011;640;48.310;11.728;2023-04-30T15:20:57;109.72;;;74.43;;
1294;SDS011;640;48.310;11.728;2023-04-30T15:23:26;64.47;;;42.75;;
1294;SDS011;640;48.310;11.728;2023-04-30T15:25:55;71.88;;;48.28;;
1294;SDS011;640;48.310;11.728;2023-04-30T15:28:24;62.72;;;42.28;;
1294;SDS011;640;48.310;11.728;2023-04-30T15:30:52;63.30;;;42.92;;
1294;SDS011;640;48.310;11.728;2023-04-30T15:33:20;83.22;;;53.08;;